createdAt,value
2023-05-22T00:02:50.846Z,99867.88
2023-05-22T00:07:52.684Z,99870.84
2023-05-22T00:12:54.297Z,99860.59
2023-05-22T00:17:55.988Z,99867.69
2023-05-22T00:22:58.044Z,99860.53
2023-05-22T00:27:59.622Z,99859.63
2023-05-22T00:33:02.360Z,99862.59
2023-05-22T00:38:05.424Z,99858.66
2023-05-22T00:43:08.672Z,99861.59
2023-05-22T00:48:12.375Z,99860.44
2023-05-22T00:53:14.887Z,99858.19
2023-05-22T00:58:20.076Z,99860.63
2023-05-22T01:03:26.323Z,99854.72
2023-05-22T01:08:28.746Z,99856.53
2023-05-22T01:13:44.544Z,99863.84
2023-05-22T01:19:10.998Z,99869.63
2023-05-22T01:24:45.173Z,99875.44
2023-05-22T01:29:59.082Z,99884.75
2023-05-22T01:35:03.367Z,99890.16
2023-05-22T01:40:06.496Z,99897.81
2023-05-22T01:45:11.812Z,99897.00
2023-05-22T01:50:14.686Z,99905.41
2023-05-22T01:55:27.607Z,99906.66
2023-05-22T02:00:31.422Z,99912.28
2023-05-22T02:05:35.910Z,99902.22
2023-05-22T02:10:39.589Z,99910.38
2023-05-22T02:15:48.012Z,99909.03
2023-05-22T02:20:49.658Z,99910.63
2023-05-22T02:25:51.352Z,99921.50
2023-05-22T02:30:53.124Z,99912.72
2023-05-22T02:35:54.798Z,99915.63
2023-05-22T02:40:56.494Z,99914.72
2023-05-22T02:45:58.115Z,99902.63
2023-05-22T02:50:59.739Z,99906.59
2023-05-22T02:56:01.303Z,99906.16
2023-05-22T03:01:03.597Z,99903.50
2023-05-22T03:06:05.396Z,99902.97
2023-05-22T03:11:08.174Z,99907.31
2023-05-22T03:16:10.954Z,99916.13
2023-05-22T03:21:17.595Z,99918.13
2023-05-22T03:26:19.194Z,99925.28
2023-05-22T03:31:20.753Z,99921.97
2023-05-22T03:36:34.243Z,99913.66
2023-05-22T03:41:37.015Z,99920.16
2023-05-22T03:46:39.230Z,99916.56
2023-05-22T03:51:41.012Z,99915.50
2023-05-22T03:56:43.742Z,99908.66
2023-05-22T04:01:46.707Z,99909.25
2023-05-22T04:06:49.700Z,99920.22
2023-05-22T04:11:53.259Z,99924.25
2023-05-22T04:16:54.921Z,99920.06
2023-05-22T04:21:58.272Z,99921.91
2023-05-22T04:27:00.522Z,99929.00
2023-05-22T04:32:02.296Z,99927.28
2023-05-22T04:37:05.359Z,99934.16
2023-05-22T04:42:07.199Z,99934.69
2023-05-22T04:47:14.557Z,99934.97
2023-05-22T04:52:16.425Z,99933.84
2023-05-22T04:57:21.293Z,99936.50
2023-05-22T05:02:25.685Z,99935.53
2023-05-22T05:07:27.929Z,99935.88
2023-05-22T05:12:29.555Z,99929.19
2023-05-22T05:17:31.238Z,99936.34
2023-05-22T05:22:33.163Z,99928.75
2023-05-22T05:27:36.479Z,99938.00
2023-05-22T05:32:38.693Z,99934.63
2023-05-22T05:37:52.975Z,99934.47
2023-05-22T05:42:56.267Z,99935.19
2023-05-22T05:48:00.885Z,99925.81
2023-05-22T05:53:02.586Z,99922.91
2023-05-22T05:58:04.332Z,99921.44
2023-05-22T06:03:25.610Z,99929.84
2023-05-22T06:08:39.280Z,99935.06
2023-05-22T06:13:41.059Z,99941.97
2023-05-22T06:18:42.679Z,99928.53
2023-05-22T06:23:44.428Z,99930.69
2023-05-22T06:28:46.317Z,99932.16
2023-05-22T06:33:48.234Z,99928.19
2023-05-22T06:38:50.113Z,99936.38
2023-05-22T06:44:14.889Z,99930.72
2023-05-22T06:49:16.880Z,99926.41
2023-05-22T06:54:28.701Z,99938.06
2023-05-22T06:59:32.093Z,99937.16
2023-05-22T07:04:44.905Z,99941.34
2023-05-22T07:09:51.765Z,99943.06
2023-05-22T07:14:54.688Z,99955.94
2023-05-22T07:19:58.392Z,99956.50
2023-05-22T07:25:02.938Z,99960.59
2023-05-22T07:30:08.110Z,99965.53
2023-05-22T07:35:11.707Z,99964.97
2023-05-22T07:40:14.416Z,99957.19
2023-05-22T07:45:16.186Z,99953.53
2023-05-22T07:50:18.014Z,99951.78
2023-05-22T07:55:21.237Z,99944.72
2023-05-22T08:00:27.306Z,99943.97
2023-05-22T08:05:28.953Z,99937.31
2023-05-22T08:10:46.544Z,99922.44
2023-05-22T08:15:49.185Z,99932.97
2023-05-22T08:20:54.309Z,99932.84
2023-05-22T08:25:58.030Z,99919.25
2023-05-22T08:30:59.630Z,99927.09
2023-05-22T08:36:01.259Z,99926.91
2023-05-22T08:41:03.015Z,99934.78
2023-05-22T08:46:06.259Z,99930.59
2023-05-22T08:51:09.139Z,99928.72
2023-05-22T08:56:10.935Z,99931.69
2023-05-22T09:01:14.037Z,99927.50
2023-05-22T09:06:21.095Z,99930.84
2023-05-22T09:11:22.734Z,99926.53
2023-05-22T09:16:25.442Z,99942.00
2023-05-22T09:21:30.723Z,99942.75
2023-05-22T09:26:33.684Z,99938.25
2023-05-22T09:31:42.154Z,99931.50
2023-05-22T09:36:44.048Z,99938.88
2023-05-22T09:41:45.764Z,99929.16
2023-05-22T09:46:48.141Z,99936.44
2023-05-22T09:51:54.480Z,99925.16
2023-05-22T09:56:58.688Z,99923.06
2023-05-22T10:02:02.202Z,99923.28
2023-05-22T10:07:05.615Z,99916.84
2023-05-22T10:12:10.307Z,99917.91
2023-05-22T10:17:12.619Z,99930.09
2023-05-22T10:22:20.801Z,99915.63
2023-05-22T10:27:22.412Z,99913.97
2023-05-22T10:32:46.742Z,99906.94
2023-05-22T10:38:14.998Z,99899.69
2023-05-22T10:43:16.759Z,99903.41
2023-05-22T10:48:22.207Z,99897.91
2023-05-22T10:53:28.301Z,99890.41
2023-05-22T10:58:37.312Z,99883.59
2023-05-22T11:03:53.177Z,99875.03
2023-05-22T11:08:56.496Z,99876.13
2023-05-22T11:14:04.364Z,99857.50
2023-05-22T11:19:21.832Z,99855.09
2023-05-22T11:24:24.942Z,99847.75
2023-05-22T11:29:27.165Z,99837.44
2023-05-22T11:34:29.000Z,99835.34
2023-05-22T11:39:33.757Z,99831.00
2023-05-22T11:44:35.629Z,99819.75
2023-05-22T11:49:37.393Z,99816.84
2023-05-22T11:54:39.182Z,99814.47
2023-05-22T11:59:44.976Z,99823.66
2023-05-22T12:04:46.698Z,99812.66
2023-05-22T12:09:49.295Z,99805.81
2023-05-22T12:14:51.121Z,99803.41
2023-05-22T12:19:53.362Z,99806.06
2023-05-22T12:24:55.684Z,99807.03
2023-05-22T12:29:58.165Z,99811.91
2023-05-22T12:35:00.043Z,99812.31
2023-05-22T12:40:04.317Z,99803.38
2023-05-22T12:45:06.479Z,99790.84
2023-05-22T12:50:08.845Z,99792.97
2023-05-22T12:55:10.925Z,99787.13
2023-05-22T13:00:13.482Z,99771.34
2023-05-22T13:05:15.819Z,99767.50
2023-05-22T13:10:18.986Z,99753.53
2023-05-22T13:15:20.727Z,99746.44
2023-05-22T13:20:23.723Z,99742.25
2023-05-22T13:25:25.352Z,99737.03
2023-05-22T13:30:27.064Z,99746.38
2023-05-22T13:35:28.681Z,99747.66
2023-05-22T13:40:30.705Z,99732.44
2023-05-22T13:45:34.432Z,99729.19
2023-05-22T13:50:36.053Z,99714.41
2023-05-22T13:55:37.957Z,99721.28
2023-05-22T14:00:39.716Z,99725.44
2023-05-22T14:05:41.491Z,99713.00
2023-05-22T14:10:43.335Z,99707.09
2023-05-22T14:15:46.966Z,99715.00
2023-05-22T14:20:48.852Z,99710.38
2023-05-22T14:25:50.432Z,99712.91
2023-05-22T14:30:52.078Z,99720.78
2023-05-22T14:35:53.820Z,99717.69
2023-05-22T14:40:55.400Z,99716.06
2023-05-22T14:45:58.155Z,99707.69
2023-05-22T14:51:00.012Z,99717.75
2023-05-22T14:56:01.628Z,99703.19
2023-05-22T15:01:03.465Z,99710.50
2023-05-22T15:06:05.187Z,99703.81
2023-05-22T15:11:06.755Z,99707.44
2023-05-22T15:16:08.359Z,99694.78
2023-05-22T15:21:10.174Z,99690.59
2023-05-22T15:26:11.940Z,99695.69
2023-05-22T15:31:14.059Z,99691.00
2023-05-22T15:36:15.897Z,99699.84
2023-05-22T15:41:17.485Z,99693.16
2023-05-22T15:46:19.516Z,99702.81
2023-05-22T15:51:21.215Z,99712.22
2023-05-22T15:56:23.698Z,99720.38
2023-05-22T16:01:26.054Z,99736.97
2023-05-22T16:06:28.553Z,99738.94
2023-05-22T16:11:30.267Z,99749.13
2023-05-22T16:16:31.944Z,99752.97
2023-05-22T16:21:33.635Z,99780.84
2023-05-22T16:26:37.622Z,99821.78
2023-05-22T16:31:39.322Z,99845.97
2023-05-22T16:36:40.964Z,99851.81
2023-05-22T16:41:42.706Z,99849.41
2023-05-22T16:46:44.378Z,99855.25
2023-05-22T16:51:46.071Z,99858.69
2023-05-22T16:56:47.653Z,99857.34
2023-05-22T17:01:49.340Z,99868.25
2023-05-22T17:06:53.722Z,99876.00
2023-05-22T17:11:55.402Z,99867.81
2023-05-22T17:16:56.976Z,99861.22
2023-05-22T17:21:58.687Z,99867.31
2023-05-22T17:27:00.615Z,99868.41
2023-05-22T17:32:04.816Z,99878.25
2023-05-22T17:37:06.626Z,99873.50
2023-05-22T17:42:08.238Z,99867.19
2023-05-22T17:47:09.824Z,99854.72
2023-05-22T17:52:13.008Z,99841.22
2023-05-22T17:57:14.634Z,99843.50
2023-05-22T18:02:16.325Z,99839.69
2023-05-22T18:07:19.284Z,99850.66
2023-05-22T18:17:25.622Z,99858.28
2023-05-22T18:22:27.289Z,99861.09
2023-05-22T18:27:29.043Z,99874.59
2023-05-22T18:32:31.375Z,99879.34
2023-05-22T18:37:33.117Z,99874.25
2023-05-22T18:42:34.851Z,99875.25
2023-05-22T18:47:36.645Z,99873.41
2023-05-22T18:52:38.300Z,99876.56
2023-05-22T18:57:39.876Z,99869.97
2023-05-22T19:02:41.472Z,99878.31
2023-05-22T19:07:43.170Z,99888.69
2023-05-22T19:12:44.748Z,99895.53
2023-05-22T19:17:46.385Z,99907.94
2023-05-22T19:22:48.118Z,99928.09
2023-05-22T19:27:49.861Z,99940.69
2023-05-22T19:32:55.657Z,99943.75
2023-05-22T19:37:57.457Z,99953.88
2023-05-22T19:42:59.130Z,99950.66
2023-05-22T19:48:00.876Z,99949.09
2023-05-22T19:53:02.514Z,99944.59
2023-05-22T19:58:04.100Z,99957.31
2023-05-22T20:03:05.855Z,99954.56
2023-05-22T20:08:07.706Z,99961.09
2023-05-22T20:13:09.369Z,99977.78
2023-05-22T20:18:11.003Z,99987.59
2023-05-22T20:23:12.711Z,99986.78
2023-05-22T20:28:14.314Z,100001.50
2023-05-22T20:33:16.873Z,100019.28
2023-05-22T20:38:18.992Z,100036.47
2023-05-22T20:43:20.785Z,100031.78
2023-05-22T20:48:22.360Z,100027.63
2023-05-22T20:53:24.606Z,100034.28
2023-05-22T20:58:26.185Z,100047.00
2023-05-22T21:03:28.834Z,100047.56
2023-05-22T21:08:30.592Z,100041.44
2023-05-22T21:13:32.132Z,100048.09
2023-05-22T21:18:33.753Z,100051.06
2023-05-22T21:23:35.573Z,100052.97
2023-05-22T21:28:37.176Z,100054.63
2023-05-22T21:33:38.765Z,100051.25
2023-05-22T21:38:40.409Z,100052.09
2023-05-22T21:43:42.345Z,100059.53
2023-05-22T21:48:43.993Z,100068.34
2023-05-22T21:53:46.616Z,100072.69
2023-05-22T21:58:48.616Z,100078.09
2023-05-22T22:03:50.249Z,100086.84
2023-05-22T22:08:53.197Z,100109.72
2023-05-22T22:13:55.093Z,100105.03
2023-05-22T22:18:58.140Z,100118.00
2023-05-22T22:23:59.929Z,100118.53
2023-05-22T22:29:01.575Z,100121.34
2023-05-22T22:34:05.554Z,100125.06
2023-05-22T22:39:07.387Z,100134.56
2023-05-22T22:44:09.104Z,100138.22
2023-05-22T22:49:10.820Z,100131.66
2023-05-22T22:54:15.320Z,100143.88
2023-05-22T22:59:17.194Z,100149.19
2023-05-22T23:04:18.878Z,100149.78
2023-05-22T23:09:20.565Z,100145.66
2023-05-22T23:14:22.565Z,100158.69
2023-05-22T23:19:24.336Z,100149.56
2023-05-22T23:24:25.972Z,100160.06
2023-05-22T23:29:27.593Z,100168.69
2023-05-22T23:34:29.222Z,100158.19
2023-05-22T23:39:30.835Z,100157.66
2023-05-22T23:44:32.414Z,100165.13
2023-05-22T23:49:34.052Z,100167.63
2023-05-22T23:54:35.654Z,100155.19
2023-05-22T23:59:37.304Z,100148.00
